Peruwelz, Belgium
Current Conditions -  °F | °C
As of 9:25 AM on Saturday 20 Dec 2014 (Local Time) from EBCV Reporting Station
Broken Clouds Broken Clouds  
Wind Chill: 34°   Ceiling: 15000
Heat Index: 41°   Visibility: 6mi
Dew Point: 37°   Wind: 12mph
Humidity: 87%   Direction: 230°SW
Pressure: 30.27"   Gusts: NA
Location:  50.51°N, 3.59°E
Report Text: EBCV 200825Z AUTO 23010KT 9999 FEW045/// BKN150/// 05/03 Q1025 BLU
Loading
Personal Weather Stations






























Interactive Weather Map New forecast layout! Learn more

10-Day Weather Forecast

Advertisements
Track Severe Weather on mobile